createdAt,value
2023-05-16T00:01:47.029Z,93892.59
2023-05-16T00:04:13.923Z,93888.44
2023-05-16T00:06:41.099Z,93894.47
2023-05-16T00:09:07.797Z,93890.13
2023-05-16T00:11:34.630Z,93886.00
2023-05-16T00:14:01.707Z,93888.69
2023-05-16T00:16:30.170Z,93891.34
2023-05-16T00:19:00.942Z,93890.13
2023-05-16T00:21:28.100Z,93893.56
2023-05-16T00:23:54.878Z,93881.31
2023-05-16T00:26:21.812Z,93877.28
2023-05-16T00:28:48.664Z,93882.50
2023-05-16T00:31:15.555Z,93879.63
2023-05-16T00:33:42.273Z,93880.28
2023-05-16T00:36:09.012Z,93877.16
2023-05-16T00:38:35.856Z,93871.88
2023-05-16T00:41:02.588Z,93871.66
2023-05-16T00:43:29.261Z,93880.81
2023-05-16T00:45:57.983Z,93872.00
2023-05-16T00:48:25.477Z,93874.22
2023-05-16T00:50:53.311Z,93870.75
2023-05-16T00:53:23.303Z,93876.22
2023-05-16T00:55:50.130Z,93872.66
2023-05-16T00:58:17.318Z,93867.53
2023-05-16T01:00:48.784Z,93871.13
2023-05-16T01:03:16.040Z,93869.88
2023-05-16T01:05:42.866Z,93865.19
2023-05-16T01:08:10.095Z,93871.31
2023-05-16T01:11:08.236Z,93865.63
2023-05-16T01:13:53.670Z,93862.84
2023-05-16T01:16:36.302Z,93864.16
2023-05-16T01:19:18.702Z,93855.22
2023-05-16T01:21:50.027Z,93858.78
2023-05-16T01:24:24.217Z,93861.78
2023-05-16T01:26:52.334Z,93851.97
2023-05-16T01:29:19.591Z,93854.97
2023-05-16T01:31:46.705Z,93849.97
2023-05-16T01:34:13.504Z,93857.19
2023-05-16T01:37:25.572Z,93860.78
2023-05-16T01:40:08.089Z,93841.34
2023-05-16T01:42:39.781Z,93851.06
2023-05-16T01:45:13.662Z,93853.53
2023-05-16T01:47:43.165Z,93848.06
2023-05-16T01:50:20.133Z,93855.53
2023-05-16T01:52:49.629Z,93863.34
2023-05-16T01:55:24.799Z,93855.66
2023-05-16T01:57:53.534Z,93863.16
2023-05-16T02:00:21.078Z,93838.59
2023-05-16T02:02:47.755Z,93861.78
2023-05-16T02:05:16.642Z,93861.00
2023-05-16T02:07:44.275Z,93864.78
2023-05-16T02:10:11.806Z,93858.00
2023-05-16T02:12:38.424Z,93872.50
2023-05-16T02:15:05.958Z,93867.41
2023-05-16T02:17:32.706Z,93863.63
2023-05-16T02:19:59.789Z,93863.41
2023-05-16T02:22:27.334Z,93866.88
2023-05-16T02:24:54.019Z,93865.75
2023-05-16T02:27:20.957Z,93860.84
2023-05-16T02:29:47.587Z,93860.75
2023-05-16T02:32:14.239Z,93868.44
2023-05-16T02:34:40.985Z,93872.56
2023-05-16T02:37:07.738Z,93876.47
2023-05-16T02:39:34.425Z,93872.69
2023-05-16T02:42:01.089Z,93875.16
2023-05-16T02:44:27.691Z,93880.66
2023-05-16T02:46:54.346Z,93872.16
2023-05-16T02:49:21.228Z,93875.38
2023-05-16T02:51:47.983Z,93874.16
2023-05-16T02:54:14.654Z,93866.91
2023-05-16T02:56:41.354Z,93876.94
2023-05-16T02:59:08.940Z,93869.69
2023-05-16T03:01:35.704Z,93873.16
2023-05-16T03:04:02.658Z,93868.13
2023-05-16T03:06:33.200Z,93869.38
2023-05-16T03:08:59.926Z,93870.38
2023-05-16T03:11:29.016Z,93873.72
2023-05-16T03:13:55.749Z,93865.78
2023-05-16T03:16:24.056Z,93871.00
2023-05-16T03:18:51.950Z,93867.41
2023-05-16T03:21:18.612Z,93870.75
2023-05-16T03:23:45.382Z,93866.50
2023-05-16T03:26:12.138Z,93861.84
2023-05-16T03:28:38.838Z,93869.19
2023-05-16T03:31:05.613Z,93866.41
2023-05-16T03:33:32.443Z,93869.09
2023-05-16T03:35:59.202Z,93865.31
2023-05-16T03:38:26.020Z,93864.53
2023-05-16T03:40:52.748Z,93858.13
2023-05-16T03:43:19.487Z,93849.97
2023-05-16T03:45:46.278Z,93861.78
2023-05-16T03:48:13.043Z,93859.56
2023-05-16T03:50:41.139Z,93864.28
2023-05-16T03:53:09.095Z,93852.34
2023-05-16T03:55:36.010Z,93854.22
2023-05-16T03:58:02.690Z,93859.56
2023-05-16T04:00:29.592Z,93861.00
2023-05-16T04:02:56.827Z,93861.78
2023-05-16T04:05:23.556Z,93857.69
2023-05-16T04:07:50.518Z,93864.72
2023-05-16T04:10:17.388Z,93859.69
2023-05-16T04:12:44.686Z,93860.16
2023-05-16T04:15:11.914Z,93865.19
2023-05-16T04:17:38.601Z,93867.84
2023-05-16T04:20:07.068Z,93868.31
2023-05-16T04:22:33.957Z,93869.19
2023-05-16T04:25:00.760Z,93875.91
2023-05-16T04:27:27.534Z,93867.22
2023-05-16T04:29:54.230Z,93871.72
2023-05-16T04:32:20.931Z,93873.50
2023-05-16T04:34:48.552Z,93875.50
2023-05-16T04:37:15.195Z,93874.97
2023-05-16T04:39:42.713Z,93877.00
2023-05-16T04:42:09.560Z,93880.13
2023-05-16T04:44:36.197Z,93884.91
2023-05-16T04:47:02.938Z,93891.63
2023-05-16T04:49:29.610Z,93893.19
2023-05-16T04:51:56.370Z,93889.97
2023-05-16T04:54:23.251Z,93897.66
2023-05-16T04:56:50.280Z,93897.66
2023-05-16T04:59:16.980Z,93896.75
2023-05-16T05:01:43.711Z,93907.47
2023-05-16T05:04:10.385Z,93903.47
2023-05-16T05:06:37.038Z,93901.47
2023-05-16T05:09:05.807Z,93909.28
2023-05-16T05:11:32.981Z,93909.16
2023-05-16T05:13:59.652Z,93900.91
2023-05-16T05:16:26.468Z,93912.72
2023-05-16T05:18:53.317Z,93910.16
2023-05-16T05:21:20.461Z,93905.38
2023-05-16T05:23:47.262Z,93917.31
2023-05-16T05:26:14.151Z,93919.34
2023-05-16T05:28:42.155Z,93914.06
2023-05-16T05:31:12.550Z,93908.03
2023-05-16T05:33:39.482Z,93909.28
2023-05-16T05:36:06.426Z,93909.94
2023-05-16T05:38:33.232Z,93900.34
2023-05-16T05:40:59.887Z,93908.91
2023-05-16T05:43:26.591Z,93905.88
2023-05-16T05:45:53.921Z,93913.41
2023-05-16T05:48:20.862Z,93908.59
2023-05-16T05:50:47.667Z,93901.44
2023-05-16T05:53:14.330Z,93896.44
2023-05-16T05:55:43.738Z,93894.56
2023-05-16T05:58:10.421Z,93900.34
2023-05-16T06:00:37.115Z,93902.09
2023-05-16T06:03:03.922Z,93908.81
2023-05-16T06:05:31.163Z,93896.94
2023-05-16T06:07:58.106Z,93905.66
2023-05-16T06:10:24.808Z,93907.75
2023-05-16T06:12:51.747Z,93907.66
2023-05-16T06:15:18.421Z,93909.41
2023-05-16T06:17:45.158Z,93911.22
2023-05-16T06:20:12.276Z,93909.16
2023-05-16T06:22:39.137Z,93922.66
2023-05-16T06:25:06.167Z,93918.47
2023-05-16T06:27:33.517Z,93921.94
2023-05-16T06:30:00.179Z,93925.44
2023-05-16T06:32:26.865Z,93920.00
2023-05-16T06:34:53.584Z,93925.47
2023-05-16T06:37:20.305Z,93921.97
2023-05-16T06:39:47.024Z,93923.78
2023-05-16T06:42:13.767Z,93919.59
2023-05-16T06:44:40.506Z,93930.91
2023-05-16T06:47:07.396Z,93928.06
2023-05-16T06:49:34.510Z,93916.50
2023-05-16T06:52:02.662Z,93919.09
2023-05-16T06:54:29.394Z,93922.78
2023-05-16T06:56:56.418Z,93929.72
2023-05-16T06:59:23.255Z,93929.50
2023-05-16T07:01:50.035Z,93925.75
2023-05-16T07:04:20.023Z,93933.56
2023-05-16T07:06:46.730Z,93925.38
2023-05-16T07:09:13.440Z,93927.50
2023-05-16T07:11:40.183Z,93935.81
2023-05-16T07:14:06.856Z,93935.94
2023-05-16T07:16:33.723Z,93938.88
2023-05-16T07:19:00.623Z,93935.22
2023-05-16T07:21:28.018Z,93945.66
2023-05-16T07:23:54.829Z,93942.72
2023-05-16T07:26:23.331Z,93933.97
2023-05-16T07:28:50.864Z,93935.78
2023-05-16T07:31:17.711Z,93939.28
2023-05-16T07:33:45.197Z,93948.25
2023-05-16T07:36:16.631Z,93950.94
2023-05-16T07:38:44.518Z,93947.41
2023-05-16T07:41:11.452Z,93958.19
2023-05-16T07:43:38.288Z,93961.13
2023-05-16T07:46:05.886Z,93959.88
2023-05-16T07:48:32.691Z,93959.81
2023-05-16T07:50:59.387Z,93969.31
2023-05-16T07:53:26.195Z,93962.13
2023-05-16T07:55:53.282Z,93969.13
2023-05-16T07:58:20.058Z,93965.44
2023-05-16T08:00:46.845Z,93963.72
2023-05-16T08:03:13.801Z,93964.50
2023-05-16T08:05:40.800Z,93964.03
2023-05-16T08:08:07.638Z,93969.13
2023-05-16T08:10:34.386Z,93967.72
2023-05-16T08:13:01.166Z,93965.44
2023-05-16T08:15:28.613Z,93960.75
2023-05-16T08:17:58.136Z,93970.41
2023-05-16T08:20:25.987Z,93963.47
2023-05-16T08:22:52.772Z,93966.94
2023-05-16T08:25:19.928Z,93964.81
2023-05-16T08:27:50.402Z,93971.25
2023-05-16T08:30:17.277Z,93966.22
2023-05-16T08:32:43.984Z,93958.38
2023-05-16T08:35:11.382Z,93968.53
2023-05-16T08:37:38.116Z,93963.56
2023-05-16T08:40:08.408Z,93967.09
2023-05-16T08:42:35.542Z,93967.03
2023-05-16T08:45:02.814Z,93980.41
2023-05-16T08:47:32.428Z,93984.50
2023-05-16T08:50:01.759Z,93974.69
2023-05-16T08:52:31.314Z,93980.16
2023-05-16T08:57:33.885Z,93988.00
2023-05-16T09:00:00.736Z,93980.53
2023-05-16T09:02:30.624Z,93975.06
2023-05-16T09:04:58.585Z,93989.72
2023-05-16T09:07:25.394Z,93976.25
2023-05-16T09:09:52.163Z,93978.50
2023-05-16T09:12:20.325Z,93968.75
2023-05-16T09:14:47.525Z,93973.59
2023-05-16T09:17:18.410Z,93977.84
2023-05-16T09:19:50.688Z,93976.75
2023-05-16T09:22:18.126Z,93974.94
2023-05-16T09:24:46.287Z,93974.75
2023-05-16T09:27:16.005Z,93977.16
2023-05-16T09:29:44.187Z,93977.22
2023-05-16T09:32:15.609Z,93983.59
2023-05-16T09:34:48.994Z,93964.16
2023-05-16T09:37:16.430Z,93987.00
2023-05-16T09:39:51.565Z,93989.03
2023-05-16T09:42:20.070Z,93985.84
2023-05-16T09:44:49.056Z,93998.16
2023-05-16T09:47:17.625Z,94000.44
2023-05-16T09:49:46.306Z,93998.63
2023-05-16T09:52:16.676Z,94001.34
2023-05-16T09:54:43.700Z,93995.97
2023-05-16T09:57:10.540Z,93985.47
2023-05-16T09:59:38.809Z,93989.81
2023-05-16T10:02:07.888Z,93991.72
2023-05-16T10:04:38.580Z,93989.47
2023-05-16T10:07:06.928Z,93994.25
2023-05-16T10:09:34.280Z,93989.72
2023-05-16T10:12:04.342Z,93993.09
2023-05-16T10:14:35.876Z,93991.50
2023-05-16T10:17:04.821Z,93992.00
2023-05-16T10:19:33.092Z,93991.13
2023-05-16T10:22:04.396Z,94000.88
2023-05-16T10:25:03.943Z,93997.69
2023-05-16T10:27:31.618Z,93995.19
2023-05-16T10:29:58.799Z,93994.50
2023-05-16T10:32:26.829Z,93997.09
2023-05-16T10:34:56.093Z,93995.53
2023-05-16T10:37:24.641Z,93995.63
2023-05-16T10:39:52.188Z,93989.22
2023-05-16T10:42:20.237Z,93990.94
2023-05-16T10:44:58.510Z,93992.25
2023-05-16T10:47:32.101Z,93984.63
2023-05-16T10:49:58.845Z,93992.84
2023-05-16T10:52:34.396Z,94008.81
2023-05-16T10:55:04.983Z,93993.69
2023-05-16T10:57:33.728Z,93999.03
2023-05-16T11:00:02.174Z,94005.09
2023-05-16T11:02:30.271Z,93999.97
2023-05-16T11:04:59.747Z,94005.25
2023-05-16T11:07:32.747Z,93996.81
2023-05-16T11:10:11.249Z,94000.81
2023-05-16T11:12:45.654Z,94002.69
2023-05-16T11:15:27.365Z,94015.44
2023-05-16T11:18:08.388Z,94010.16
2023-05-16T11:20:37.439Z,94008.53
2023-05-16T11:23:20.010Z,94023.31
2023-05-16T11:25:55.357Z,94015.84
2023-05-16T11:28:24.931Z,94024.44
2023-05-16T11:30:56.170Z,94017.06
2023-05-16T11:33:24.637Z,94031.31
2023-05-16T11:36:15.374Z,94027.66
2023-05-16T11:38:44.130Z,94016.00
2023-05-16T11:41:11.690Z,94017.59
2023-05-16T11:43:44.847Z,94032.59
2023-05-16T11:46:16.496Z,94020.72
2023-05-16T11:48:45.406Z,94017.88
2023-05-16T11:51:12.348Z,94018.16
2023-05-16T11:53:39.762Z,94021.66
2023-05-16T11:56:08.664Z,94028.25
2023-05-16T11:58:36.771Z,94036.78
2023-05-16T12:01:04.977Z,94034.22
2023-05-16T12:03:36.105Z,94030.75
2023-05-16T12:06:03.121Z,94037.84
2023-05-16T12:08:30.832Z,94030.56
2023-05-16T12:10:57.693Z,94019.94
2023-05-16T12:13:25.729Z,94015.66
2023-05-16T12:15:52.965Z,94015.22
2023-05-16T12:18:21.643Z,94022.59
2023-05-16T12:20:48.651Z,94010.75
2023-05-16T12:23:16.469Z,94004.50
2023-05-16T12:25:47.812Z,94023.41
2023-05-16T12:28:15.059Z,94016.91
2023-05-16T12:30:43.270Z,94018.03
2023-05-16T12:33:13.076Z,94008.63
2023-05-16T12:35:41.935Z,94020.78
2023-05-16T12:38:13.356Z,94012.44
2023-05-16T12:40:42.227Z,94023.91
2023-05-16T12:43:20.049Z,94018.88
2023-05-16T12:45:54.998Z,94021.53
2023-05-16T12:48:23.052Z,94015.16
2023-05-16T12:50:49.880Z,94022.75
2023-05-16T12:53:18.500Z,94023.88
2023-05-16T12:55:45.642Z,94023.56
2023-05-16T12:58:12.931Z,94024.16
2023-05-16T13:00:39.885Z,94004.97
2023-05-16T13:03:08.005Z,94006.88
2023-05-16T13:05:36.543Z,94011.91
2023-05-16T13:08:04.161Z,94011.34
2023-05-16T13:10:31.415Z,94014.47
2023-05-16T13:13:01.473Z,94011.00
2023-05-16T13:15:28.636Z,94015.34
2023-05-16T13:17:55.758Z,94017.75
2023-05-16T13:20:22.570Z,94008.75
2023-05-16T13:22:49.318Z,94010.88
2023-05-16T13:25:16.268Z,94019.56
2023-05-16T13:27:43.124Z,94017.19
2023-05-16T13:30:10.179Z,94019.97
2023-05-16T13:32:37.024Z,94022.72
2023-05-16T13:35:04.293Z,94012.66
2023-05-16T13:37:31.504Z,94030.75
2023-05-16T13:39:58.319Z,94036.31
2023-05-16T13:42:25.277Z,94036.16
2023-05-16T13:44:52.188Z,94029.34
2023-05-16T13:47:19.042Z,94037.56
2023-05-16T13:49:46.249Z,94027.19
2023-05-16T13:52:13.236Z,94035.59
2023-05-16T13:54:41.563Z,94039.16
2023-05-16T13:57:08.703Z,94050.25
2023-05-16T14:00:03.450Z,94049.47
2023-05-16T14:02:22.349Z,94051.00
2023-05-16T14:04:50.103Z,94058.28
2023-05-16T14:07:17.023Z,94054.69
2023-05-16T14:09:44.670Z,94051.06
2023-05-16T14:12:11.657Z,94063.78
2023-05-16T14:14:38.391Z,94053.34
2023-05-16T14:17:05.420Z,94057.13
2023-05-16T14:19:34.442Z,94063.22
2023-05-16T14:22:01.238Z,94065.78
2023-05-16T14:24:28.071Z,94070.03
2023-05-16T14:26:55.368Z,94057.63
2023-05-16T14:29:22.752Z,94067.34
2023-05-16T14:31:49.606Z,94072.72
2023-05-16T14:34:16.366Z,94071.59
2023-05-16T14:36:43.786Z,94072.22
2023-05-16T14:39:10.624Z,94073.28
2023-05-16T14:41:37.541Z,94066.88
2023-05-16T14:44:04.442Z,94070.28
2023-05-16T14:46:31.213Z,94078.09
2023-05-16T14:48:57.924Z,94065.84
2023-05-16T14:51:24.687Z,94075.84
2023-05-16T14:53:51.412Z,94087.34
2023-05-16T14:56:18.219Z,94080.97
2023-05-16T14:58:44.973Z,94075.63
2023-05-16T15:01:11.797Z,94075.16
2023-05-16T15:03:53.676Z,94077.47
2023-05-16T15:06:21.905Z,94082.50
2023-05-16T15:08:48.583Z,94082.66
2023-05-16T15:11:15.305Z,94088.75
2023-05-16T15:13:47.779Z,94091.00
2023-05-16T15:16:14.813Z,94083.28
2023-05-16T15:18:41.857Z,94097.78
2023-05-16T15:21:09.198Z,94106.97
2023-05-16T15:23:36.829Z,94104.50
2023-05-16T15:26:04.184Z,94105.75
2023-05-16T15:28:30.901Z,94096.78
2023-05-16T15:30:57.609Z,94101.56
2023-05-16T15:33:24.387Z,94095.25
2023-05-16T15:35:51.943Z,94109.50
2023-05-16T15:38:18.859Z,94097.94
2023-05-16T15:40:45.550Z,94106.31
2023-05-16T15:43:12.246Z,94100.84
2023-05-16T15:45:40.361Z,94100.66
2023-05-16T15:48:07.710Z,94099.44
2023-05-16T15:50:34.590Z,94086.25
2023-05-16T15:53:01.467Z,94098.16
2023-05-16T15:55:28.587Z,94103.59
2023-05-16T15:57:57.456Z,94095.09
2023-05-16T16:00:25.017Z,94098.56
2023-05-16T16:02:52.144Z,94101.94
2023-05-16T16:05:19.022Z,94092.06
2023-05-16T16:07:45.718Z,94103.50
2023-05-16T16:10:12.563Z,94102.97
2023-05-16T16:12:39.514Z,94106.69
2023-05-16T16:15:06.975Z,94106.63
2023-05-16T16:17:33.772Z,94101.31
2023-05-16T16:20:00.602Z,94090.22
2023-05-16T16:22:27.623Z,94101.41
2023-05-16T16:24:54.411Z,94101.75
2023-05-16T16:27:21.153Z,94105.31
2023-05-16T16:29:47.886Z,94102.97
2023-05-16T16:32:14.540Z,94106.97
2023-05-16T16:34:41.334Z,94117.09
2023-05-16T16:37:10.073Z,94122.72
2023-05-16T16:39:37.303Z,94118.06
2023-05-16T16:42:04.213Z,94129.38
2023-05-16T16:44:31.102Z,94131.22
2023-05-16T16:46:57.955Z,94130.16
2023-05-16T16:49:24.635Z,94127.13
2023-05-16T16:51:51.326Z,94121.13
2023-05-16T16:54:18.018Z,94136.28
2023-05-16T16:56:46.124Z,94144.16
2023-05-16T16:59:12.819Z,94152.66
2023-05-16T17:01:39.716Z,94155.34
2023-05-16T17:04:06.526Z,94153.59
2023-05-16T17:06:33.365Z,94160.31
2023-05-16T17:09:05.210Z,94170.72
2023-05-16T17:11:35.984Z,94175.44
2023-05-16T17:14:05.928Z,94167.72
2023-05-16T17:16:33.371Z,94171.19
2023-05-16T17:19:00.231Z,94177.75
2023-05-16T17:21:28.098Z,94184.25
2023-05-16T17:23:55.230Z,94191.50
2023-05-16T17:26:22.235Z,94186.38
2023-05-16T17:28:49.612Z,94196.56
2023-05-16T17:31:16.952Z,94198.38
2023-05-16T17:33:43.684Z,94197.13
2023-05-16T17:36:10.971Z,94202.16
2023-05-16T17:38:37.833Z,94197.66
2023-05-16T17:41:04.594Z,94196.44
2023-05-16T17:43:31.340Z,94212.19
2023-05-16T17:45:58.182Z,94209.63
2023-05-16T17:48:24.985Z,94225.81
2023-05-16T17:50:51.751Z,94218.31
2023-05-16T17:53:18.597Z,94229.41
2023-05-16T17:55:45.371Z,94226.03
2023-05-16T17:58:12.968Z,94206.09
2023-05-16T18:00:39.781Z,94230.59
2023-05-16T18:03:07.030Z,94242.66
2023-05-16T18:05:34.150Z,94246.56
2023-05-16T18:08:01.083Z,94245.91
2023-05-16T18:10:33.775Z,94245.72
2023-05-16T18:13:06.896Z,94252.84
2023-05-16T18:15:35.496Z,94251.75
2023-05-16T18:18:02.382Z,94252.41
2023-05-16T18:20:29.894Z,94249.47
2023-05-16T18:22:56.713Z,94242.09
2023-05-16T18:25:23.464Z,94240.72
2023-05-16T18:27:50.366Z,94228.28
2023-05-16T18:30:17.123Z,94236.66
2023-05-16T18:32:44.048Z,94237.72
2023-05-16T18:35:10.864Z,94236.16
2023-05-16T18:37:37.707Z,94244.50
2023-05-16T18:40:04.993Z,94247.38
2023-05-16T18:42:31.723Z,94248.97
2023-05-16T18:44:58.466Z,94257.78
2023-05-16T18:47:26.946Z,94254.88
2023-05-16T18:49:54.427Z,94256.53
2023-05-16T18:52:21.319Z,94251.28
2023-05-16T18:54:48.066Z,94265.13
2023-05-16T18:57:15.151Z,94263.09
2023-05-16T18:59:42.182Z,94255.06
2023-05-16T19:02:08.979Z,94273.75
2023-05-16T19:04:35.896Z,94267.34
2023-05-16T19:07:04.790Z,94262.81
2023-05-16T19:09:32.834Z,94283.16
2023-05-16T19:11:59.556Z,94277.53
2023-05-16T19:14:27.583Z,94276.28
2023-05-16T19:16:54.655Z,94285.69
2023-05-16T19:19:21.767Z,94280.81
2023-05-16T19:21:48.765Z,94285.06
2023-05-16T19:24:15.933Z,94282.38
2023-05-16T19:26:42.788Z,94285.25
2023-05-16T19:29:10.791Z,94289.50
2023-05-16T19:31:37.523Z,94286.88
2023-05-16T19:34:05.292Z,94291.00
2023-05-16T19:36:32.152Z,94287.00
2023-05-16T19:38:59.048Z,94301.13
2023-05-16T19:41:26.404Z,94311.81
2023-05-16T19:43:53.152Z,94304.78
2023-05-16T19:46:19.841Z,94310.63
2023-05-16T19:48:46.967Z,94319.28
2023-05-16T19:51:13.828Z,94323.09
2023-05-16T19:53:41.135Z,94319.94
2023-05-16T19:56:09.711Z,94316.16
2023-05-16T19:58:36.475Z,94325.66
2023-05-16T20:01:03.271Z,94324.88
2023-05-16T20:03:30.327Z,94322.63
2023-05-16T20:05:57.108Z,94329.56
2023-05-16T20:08:23.864Z,94336.03
2023-05-16T20:10:50.581Z,94330.13
2023-05-16T20:13:20.497Z,94335.47
2023-05-16T20:15:50.225Z,94337.97
2023-05-16T20:18:17.117Z,94335.34
2023-05-16T20:20:43.946Z,94345.41
2023-05-16T20:23:10.719Z,94343.97
2023-05-16T20:25:37.553Z,94346.06
2023-05-16T20:28:04.313Z,94350.63
2023-05-16T20:30:32.444Z,94365.13
2023-05-16T20:32:59.923Z,94367.03
2023-05-16T20:35:27.003Z,94363.63
2023-05-16T20:37:53.861Z,94364.72
2023-05-16T20:40:21.184Z,94365.22
2023-05-16T20:42:47.963Z,94372.75
2023-05-16T20:45:14.955Z,94376.38
2023-05-16T20:47:41.888Z,94383.03
2023-05-16T20:50:09.196Z,94372.94
2023-05-16T20:52:35.911Z,94388.69
2023-05-16T20:55:02.618Z,94377.34
2023-05-16T20:57:29.391Z,94385.06
2023-05-16T20:59:56.091Z,94386.78
2023-05-16T21:02:22.920Z,94383.00
2023-05-16T21:04:49.659Z,94389.00
2023-05-16T21:07:16.488Z,94386.97
2023-05-16T21:09:43.293Z,94398.59
2023-05-16T21:12:10.028Z,94397.03
2023-05-16T21:14:36.760Z,94395.66
2023-05-16T21:17:03.678Z,94389.06
2023-05-16T21:19:34.625Z,94389.84
2023-05-16T21:22:04.029Z,94391.75
2023-05-16T21:24:35.090Z,94399.16
2023-05-16T21:27:03.243Z,94396.94
2023-05-16T21:29:30.156Z,94399.47
2023-05-16T21:31:56.904Z,94397.25
2023-05-16T21:34:23.629Z,94392.75
2023-05-16T21:36:50.403Z,94387.06
2023-05-16T21:39:17.226Z,94395.09
2023-05-16T21:41:44.016Z,94384.28
2023-05-16T21:44:13.584Z,94375.63
2023-05-16T21:46:40.313Z,94383.19
2023-05-16T21:49:07.084Z,94387.41
2023-05-16T21:51:33.856Z,94379.72
2023-05-16T21:54:03.168Z,94392.63
2023-05-16T21:56:30.429Z,94406.47
2023-05-16T21:58:57.949Z,94398.13
2023-05-16T22:01:28.743Z,94406.97
2023-05-16T22:03:57.396Z,94412.63
2023-05-16T22:06:25.070Z,94413.09
2023-05-16T22:08:51.849Z,94403.91
2023-05-16T22:11:18.716Z,94411.31
2023-05-16T22:13:45.563Z,94405.81
2023-05-16T22:16:12.362Z,94402.50
2023-05-16T22:18:39.230Z,94411.44
2023-05-16T22:21:06.384Z,94409.25
2023-05-16T22:23:33.098Z,94417.13
2023-05-16T22:25:59.872Z,94419.94
2023-05-16T22:28:26.850Z,94426.06
2023-05-16T22:30:53.673Z,94428.75
2023-05-16T22:33:22.691Z,94433.94
2023-05-16T22:35:50.040Z,94440.38
2023-05-16T22:38:16.887Z,94438.94
2023-05-16T22:40:43.835Z,94433.59
2023-05-16T22:43:10.814Z,94446.50
2023-05-16T22:45:37.775Z,94451.53
2023-05-16T22:48:05.192Z,94454.19
2023-05-16T22:50:32.198Z,94452.44
2023-05-16T22:52:59.232Z,94454.34
2023-05-16T22:55:26.460Z,94458.28
2023-05-16T22:57:57.226Z,94459.19
2023-05-16T23:00:24.708Z,94458.06
2023-05-16T23:02:52.186Z,94458.78
2023-05-16T23:05:19.361Z,94471.50
2023-05-16T23:07:46.414Z,94471.19
2023-05-16T23:10:13.510Z,94472.16
2023-05-16T23:12:40.656Z,94468.50
2023-05-16T23:15:10.222Z,94466.16
2023-05-16T23:17:38.545Z,94479.34
2023-05-16T23:20:07.251Z,94476.50
2023-05-16T23:22:34.270Z,94477.13
2023-05-16T23:25:01.334Z,94479.84
2023-05-16T23:27:28.349Z,94487.06
2023-05-16T23:29:55.032Z,94481.59
2023-05-16T23:32:22.016Z,94490.41
2023-05-16T23:34:49.187Z,94483.16
2023-05-16T23:37:16.193Z,94490.22
2023-05-16T23:39:43.102Z,94494.31
2023-05-16T23:42:09.820Z,94482.66
2023-05-16T23:44:36.785Z,94493.19
2023-05-16T23:47:03.549Z,94486.63
2023-05-16T23:49:30.362Z,94485.94
2023-05-16T23:51:58.212Z,94488.00
2023-05-16T23:54:26.373Z,94483.88
2023-05-16T23:56:53.142Z,94491.59
2023-05-16T23:59:20.404Z,94496.44
